Terminal Aerodrome Forecast
Issued by NWS Wilmington, OH

Current Version | Previous Version | Graphics & Text | Print | Product List | Glossary On
Versions: 1 2 3 4 5 6 7 8 9 10 11 12 13 14 15 16 17 18
000
FTUS41 KILN 272200 AAA
TAFILN
TAF AMD
KILN 272230Z 2723/2818 23006KT 4SM -RA BR OVC011
     FM280000 25005KT 2SM -RA BR OVC004
     FM280700 33008KT 4SM -RA BR OVC007
     FM281300 33007KT P6SM OVC012=

USA.gov is the U.S. government's official web portal to all federal, state and local government web resources and services.